Time;durP1;ratioP1;P1;durP2;ratioP2;P2;SDS_P1;SDS_P2;PMS_P1;PMS_P2;Temp;Humidity;BMP_temperature;BMP_pressure;BME280_temperature;BME280_humidity;BME280_pressure;Samples;Min_cycle;Max_cycle;Signal;HPM_P1;HPM_P2
2021/08/25 00:02:09;;;;;;;4.60;1.60;;;17.20;80.30;;;;;;5031910;28;20364;-79
2021/08/25 00:04:39;;;;;;;4.53;1.90;;;17.20;80.60;;;;;;5031284;28;20021;-79
2021/08/25 00:07:09;;;;;;;4.88;1.90;;;17.20;80.80;;;;;;5030720;28;20014;-78
2021/08/25 00:09:38;;;;;;;5.18;1.90;;;17.10;80.80;;;;;;5032644;28;20021;-78
2021/08/25 00:12:09;;;;;;;4.68;1.80;;;17.10;80.50;;;;;;5030754;28;20022;-79
2021/08/25 00:14:42;;;;;;;4.38;2.10;;;17.10;80.30;;;;;;5031091;28;20029;-79
2021/08/25 00:17:08;;;;;;;3.80;1.70;;;17.10;80.70;;;;;;5030582;28;20025;-79
2021/08/25 00:19:34;;;;;;;5.82;2.20;;;17.10;80.80;;;;;;5032540;28;20027;-78
2021/08/25 00:22:00;;;;;;;3.28;1.92;;;17.00;80.80;;;;;;5031807;28;20100;-78
2021/08/25 00:24:27;;;;;;;3.95;1.60;;;17.00;80.60;;;;;;5032177;28;20025;-78
2021/08/25 00:26:52;;;;;;;3.45;1.85;;;17.00;80.60;;;;;;5031817;28;20014;-78
2021/08/25 00:29:18;;;;;;;4.20;1.85;;;16.90;80.70;;;;;;5032667;28;20058;-78
2021/08/25 00:31:44;;;;;;;4.93;2.13;;;16.90;80.80;;;;;;5032276;28;20155;-78
2021/08/25 00:34:10;;;;;;;3.92;1.92;;;16.90;80.80;;;;;;5031659;28;20030;-78
2021/08/25 00:36:36;;;;;;;5.78;2.55;;;16.80;80.80;;;;;;5032492;28;20052;-79
2021/08/25 00:39:02;;;;;;;5.22;2.33;;;16.90;81.00;;;;;;5031670;28;20017;-78
2021/08/25 00:41:28;;;;;;;6.82;2.50;;;16.80;80.90;;;;;;5032179;28;20032;-78
2021/08/25 00:43:53;;;;;;;7.03;2.88;;;16.80;80.90;;;;;;5030101;28;20025;-78
2021/08/25 00:46:19;;;;;;;7.95;2.85;;;16.80;81.00;;;;;;5032636;28;20100;-78
2021/08/25 00:48:49;;;;;;;5.57;2.15;;;16.80;81.10;;;;;;5032067;28;20105;-78
2021/08/25 00:51:16;;;;;;;7.32;2.47;;;16.70;81.20;;;;;;5032103;28;20022;-78
2021/08/25 00:53:43;;;;;;;7.03;2.80;;;16.70;81.20;;;;;;5031962;28;20056;-78
2021/08/25 00:56:09;;;;;;;4.93;2.17;;;16.70;81.40;;;;;;5031473;28;20021;-78
2021/08/25 00:58:40;;;;;;;5.63;2.35;;;16.70;81.40;;;;;;5032247;28;20033;-78
2021/08/25 01:01:20;;;;;;;5.63;2.40;;;16.70;81.50;;;;;;5031074;28;20368;-78
2021/08/25 01:03:59;;;;;;;5.95;2.33;;;16.70;81.60;;;;;;5030610;28;20015;-79
2021/08/25 01:06:26;;;;;;;5.40;2.20;;;16.70;81.70;;;;;;5032297;28;20101;-78
2021/08/25 01:08:54;;;;;;;6.40;2.30;;;16.70;81.70;;;;;;5031278;28;20063;-78
2021/08/25 01:11:20;;;;;;;4.50;2.28;;;16.60;81.90;;;;;;5031905;28;20017;-78
2021/08/25 01:13:46;;;;;;;5.55;2.60;;;16.60;82.10;;;;;;5034567;28;20159;-79
2021/08/25 01:16:12;;;;;;;5.60;2.05;;;16.60;82.10;;;;;;5035454;28;20076;-78
2021/08/25 01:18:38;;;;;;;4.88;2.33;;;16.60;82.20;;;;;;5034489;28;20022;-79
2021/08/25 01:21:05;;;;;;;4.18;2.30;;;16.60;82.30;;;;;;5033918;28;20014;-79
2021/08/25 01:23:34;;;;;;;5.03;2.28;;;16.60;82.30;;;;;;5035869;28;20018;-79
2021/08/25 01:26:01;;;;;;;7.32;2.97;;;16.50;82.70;;;;;;5033882;28;20429;-79
2021/08/25 01:28:30;;;;;;;4.80;2.65;;;16.60;83.00;;;;;;5035435;28;20068;-80
2021/08/25 01:30:56;;;;;;;7.18;2.40;;;16.60;83.20;;;;;;5035174;28;20041;-79
2021/08/25 01:33:24;;;;;;;6.38;2.20;;;16.60;83.20;;;;;;5034250;28;20049;-79
2021/08/25 01:35:50;;;;;;;4.30;2.53;;;16.60;83.40;;;;;;5035072;28;20141;-79
2021/08/25 01:38:33;;;;;;;5.60;2.35;;;16.60;83.50;;;;;;5034964;28;20017;-79
2021/08/25 01:41:00;;;;;;;4.32;1.90;;;16.50;83.50;;;;;;5034902;28;20100;-79
2021/08/25 01:43:26;;;;;;;5.65;2.40;;;16.50;83.70;;;;;;5035625;28;20024;-79
2021/08/25 01:45:51;;;;;;;6.93;2.40;;;16.50;83.80;;;;;;5035323;28;20029;-79
2021/08/25 01:48:17;;;;;;;4.40;2.08;;;16.50;83.90;;;;;;5034673;28;20057;-79
2021/08/25 01:50:43;;;;;;;4.22;2.10;;;16.50;83.80;;;;;;5035528;28;20104;-80
2021/08/25 01:53:08;;;;;;;6.43;2.67;;;16.40;84.00;;;;;;5034682;28;20361;-79
2021/08/25 01:55:34;;;;;;;4.35;2.30;;;16.40;84.20;;;;;;5033857;28;20025;-79
2021/08/25 01:58:00;;;;;;;4.03;2.00;;;16.50;84.40;;;;;;5034328;28;20033;-79
2021/08/25 02:00:25;;;;;;;5.15;1.98;;;16.40;84.30;;;;;;5035182;28;20017;-79
2021/08/25 02:02:51;;;;;;;4.63;2.53;;;16.40;84.30;;;;;;5035030;28;20519;-79
2021/08/25 02:05:17;;;;;;;4.97;2.22;;;16.40;84.30;;;;;;5034404;28;20076;-79
2021/08/25 02:07:42;;;;;;;5.38;2.65;;;16.40;84.30;;;;;;5033600;28;20068;-78
2021/08/25 02:10:09;;;;;;;4.82;2.13;;;16.40;84.30;;;;;;5034292;28;20018;-78
2021/08/25 02:12:34;;;;;;;3.85;2.10;;;16.40;84.60;;;;;;5033436;28;20028;-78
2021/08/25 02:15:00;;;;;;;5.35;2.22;;;16.30;84.50;;;;;;5032783;28;20021;-78
2021/08/25 02:17:25;;;;;;;5.35;1.92;;;16.30;84.40;;;;;;5033529;28;20025;-78
2021/08/25 02:19:51;;;;;;;4.82;2.20;;;16.30;84.40;;;;;;5033468;28;20045;-79
2021/08/25 02:22:17;;;;;;;7.18;2.83;;;16.30;84.40;;;;;;5033986;28;20065;-79
2021/08/25 02:24:42;;;;;;;5.57;2.35;;;16.30;84.50;;;;;;5034625;28;20032;-78
2021/08/25 02:27:08;;;;;;;5.90;2.05;;;16.30;84.70;;;;;;5033989;28;20067;-79
2021/08/25 02:29:33;;;;;;;5.00;2.08;;;16.30;84.80;;;;;;5034368;28;20036;-79
2021/08/25 02:31:59;;;;;;;4.43;2.13;;;16.30;84.90;;;;;;5033623;28;20049;-78
2021/08/25 02:34:25;;;;;;;5.80;2.60;;;16.30;84.90;;;;;;5034253;28;20477;-78
2021/08/25 02:36:50;;;;;;;5.43;2.55;;;16.30;85.10;;;;;;5034559;28;20021;-79
2021/08/25 02:39:16;;;;;;;5.43;2.33;;;16.30;85.30;;;;;;5032443;28;20617;-79
2021/08/25 02:41:42;;;;;;;5.22;2.42;;;16.30;85.20;;;;;;5033022;28;20020;-79
2021/08/25 02:44:08;;;;;;;6.20;2.67;;;16.20;85.20;;;;;;5033761;28;20539;-78
2021/08/25 02:46:34;;;;;;;5.10;2.53;;;16.20;85.40;;;;;;5034247;28;20028;-79
2021/08/25 02:48:59;;;;;;;5.13;2.10;;;16.20;85.70;;;;;;5033482;28;20026;-78
2021/08/25 02:51:25;;;;;;;5.40;2.05;;;16.20;85.70;;;;;;5034524;28;20028;-78
2021/08/25 02:53:50;;;;;;;5.05;2.20;;;16.20;85.90;;;;;;5033709;28;20022;-78
2021/08/25 02:56:16;;;;;;;5.75;2.60;;;16.20;86.00;;;;;;5032045;28;20488;-79
2021/08/25 02:58:42;;;;;;;4.68;2.55;;;16.20;86.00;;;;;;5033983;28;20104;-79
2021/08/25 03:01:07;;;;;;;5.38;2.45;;;16.20;86.20;;;;;;5033324;28;20458;-79
2021/08/25 03:03:33;;;;;;;4.40;2.10;;;16.20;86.30;;;;;;5032754;28;20023;-79
2021/08/25 03:05:59;;;;;;;6.20;2.38;;;16.10;86.20;;;;;;5048400;28;20467;-79
2021/08/25 03:08:24;;;;;;;4.72;2.30;;;16.10;86.30;;;;;;5051904;28;20112;-79
2021/08/25 03:10:50;;;;;;;4.90;2.33;;;16.10;86.40;;;;;;5054063;28;20067;-78
2021/08/25 03:13:15;;;;;;;5.75;2.60;;;16.10;86.60;;;;;;5053232;28;20414;-79
2021/08/25 03:15:41;;;;;;;5.25;2.20;;;16.10;86.60;;;;;;5052227;28;20063;-79
2021/08/25 03:18:07;;;;;;;4.15;2.03;;;16.10;86.60;;;;;;5052951;28;20021;-79
2021/08/25 03:20:33;;;;;;;5.60;2.40;;;16.00;86.50;;;;;;5053757;28;20357;-77
2021/08/25 03:22:58;;;;;;;4.90;2.50;;;16.10;86.70;;;;;;5053780;28;20028;-77
2021/08/25 03:25:24;;;;;;;4.35;2.30;;;16.00;86.80;;;;;;5053115;28;20063;-79
2021/08/25 03:27:50;;;;;;;3.80;2.20;;;16.00;86.80;;;;;;5052092;28;20020;-79
2021/08/25 03:30:15;;;;;;;5.60;2.65;;;16.00;87.00;;;;;;5053801;28;20025;-79
2021/08/25 03:32:41;;;;;;;4.53;2.05;;;16.00;86.90;;;;;;5053464;28;20079;-79
2021/08/25 03:35:07;;;;;;;4.95;2.53;;;16.00;87.00;;;;;;5052087;28;20072;-79
2021/08/25 03:37:33;;;;;;;4.15;2.15;;;16.00;87.20;;;;;;5053359;28;20063;-79
2021/08/25 03:39:58;;;;;;;6.05;2.70;;;16.00;87.20;;;;;;5052393;28;20017;-79
2021/08/25 03:42:24;;;;;;;5.68;2.50;;;15.90;87.30;;;;;;5052205;28;20055;-78
2021/08/25 03:44:50;;;;;;;4.63;2.40;;;15.90;87.50;;;;;;5053019;28;20519;-79
2021/08/25 03:47:15;;;;;;;4.78;2.17;;;15.90;87.70;;;;;;5052102;28;20123;-77
2021/08/25 03:49:42;;;;;;;5.03;2.33;;;15.90;87.80;;;;;;5051807;28;20012;-78
2021/08/25 03:52:08;;;;;;;5.55;2.03;;;15.90;87.80;;;;;;5052421;28;20445;-77
2021/08/25 03:54:34;;;;;;;4.53;2.65;;;15.90;87.90;;;;;;5052801;28;20020;-78
2021/08/25 03:56:59;;;;;;;5.15;2.50;;;15.80;87.70;;;;;;5052765;28;20025;-78
2021/08/25 03:59:26;;;;;;;6.70;2.30;;;15.90;87.90;;;;;;5051937;28;20143;-72
2021/08/25 04:01:51;;;;;;;4.47;2.30;;;15.80;87.90;;;;;;5053036;28;20032;-79
2021/08/25 04:04:18;;;;;;;7.30;2.50;;;15.80;88.00;;;;;;5050668;28;20029;-79
2021/08/25 04:06:44;;;;;;;6.53;2.58;;;15.80;88.00;;;;;;5051305;28;20021;-78
2021/08/25 04:09:09;;;;;;;5.38;2.67;;;15.80;88.00;;;;;;5052282;28;20028;-76
2021/08/25 04:11:35;;;;;;;5.07;2.42;;;15.80;88.00;;;;;;5052509;28;20104;-78
2021/08/25 04:14:01;;;;;;;6.00;3.10;;;15.80;88.20;;;;;;5052705;28;20067;-78
2021/08/25 04:16:28;;;;;;;7.00;3.40;;;15.80;88.20;;;;;;5051970;28;20020;-76
2021/08/25 04:18:56;;;;;;;4.95;3.05;;;15.80;88.20;;;;;;5046617;28;20029;-77
2021/08/25 04:21:22;;;;;;;6.75;3.55;;;15.80;88.20;;;;;;5039417;28;20083;-77
2021/08/25 04:23:47;;;;;;;6.88;3.15;;;15.80;88.20;;;;;;5042040;28;20032;-77
2021/08/25 04:26:13;;;;;;;6.30;3.22;;;15.70;88.00;;;;;;5040435;28;20068;-78
2021/08/25 04:28:39;;;;;;;6.60;3.33;;;15.70;88.10;;;;;;5040426;28;20101;-78
2021/08/25 04:31:06;;;;;;;5.85;2.95;;;15.70;88.80;;;;;;5042239;28;20041;-78
2021/08/25 04:33:31;;;;;;;4.22;2.65;;;15.70;88.20;;;;;;5049341;28;20112;-79
2021/08/25 04:35:58;;;;;;;6.53;2.63;;;15.70;88.30;;;;;;5049369;28;20481;-79
2021/08/25 04:38:24;;;;;;;7.45;2.78;;;15.60;88.30;;;;;;5050913;28;20100;-79
2021/08/25 04:40:50;;;;;;;5.43;2.90;;;15.60;88.40;;;;;;5050576;28;20111;-79
2021/08/25 04:43:15;;;;;;;4.90;2.88;;;15.60;88.60;;;;;;5049950;28;20523;-78
2021/08/25 04:45:41;;;;;;;5.38;2.17;;;15.60;88.70;;;;;;5050568;28;20036;-79
2021/08/25 04:48:06;;;;;;;5.03;2.53;;;15.60;88.70;;;;;;5050257;28;20341;-78
2021/08/25 04:50:32;;;;;;;5.32;2.30;;;15.60;88.70;;;;;;5051544;28;20029;-78
2021/08/25 04:52:58;;;;;;;5.45;2.97;;;15.60;88.80;;;;;;5050516;28;20100;-79
2021/08/25 04:55:24;;;;;;;6.18;3.20;;;15.60;88.80;;;;;;5051165;28;20028;-78
2021/08/25 04:57:49;;;;;;;7.60;2.47;;;15.60;88.90;;;;;;5051800;28;20068;-78
2021/08/25 05:00:15;;;;;;;5.90;2.72;;;15.60;89.00;;;;;;5051182;28;20120;-78
2021/08/25 05:02:41;;;;;;;6.00;3.13;;;15.60;89.10;;;;;;5048702;28;20029;-73
2021/08/25 05:05:07;;;;;;;4.97;2.78;;;15.60;89.20;;;;;;5048925;28;20040;-81
2021/08/25 05:07:33;;;;;;;6.38;2.75;;;15.60;89.20;;;;;;5049531;28;20029;-74
2021/08/25 05:09:59;;;;;;;6.35;3.25;;;15.60;89.20;;;;;;5048338;28;20021;-75
2021/08/25 05:12:24;;;;;;;6.43;2.70;;;15.60;89.20;;;;;;5048891;28;20104;-75
2021/08/25 05:14:50;;;;;;;8.48;3.53;;;15.60;89.30;;;;;;5048962;28;20036;-75
2021/08/25 05:17:15;;;;;;;6.68;3.10;;;15.60;89.40;;;;;;5048616;28;20035;-75
2021/08/25 05:19:41;;;;;;;5.97;2.78;;;15.60;89.40;;;;;;5048027;28;20032;-74
2021/08/25 05:22:09;;;;;;;7.30;3.17;;;15.60;89.30;;;;;;5049350;28;20017;-74
2021/08/25 05:24:36;;;;;;;6.68;2.70;;;15.60;89.40;;;;;;5049326;28;20465;-74
2021/08/25 05:27:01;;;;;;;6.13;2.97;;;15.60;89.40;;;;;;5048016;28;20090;-77
2021/08/25 05:29:27;;;;;;;8.57;2.83;;;15.60;89.60;;;;;;5050843;28;20465;-78
2021/08/25 05:31:53;;;;;;;6.47;2.63;;;15.60;89.70;;;;;;5051375;28;20017;-78
2021/08/25 05:34:18;;;;;;;8.90;3.33;;;15.60;89.90;;;;;;5050790;28;20223;-78
2021/08/25 05:36:44;;;;;;;6.03;2.80;;;15.60;90.00;;;;;;5051707;28;20048;-78
2021/08/25 05:39:10;;;;;;;7.45;2.80;;;15.60;90.00;;;;;;5050819;28;20373;-78
2021/08/25 05:41:36;;;;;;;8.20;3.30;;;15.60;90.00;;;;;;5051344;28;20484;-78
2021/08/25 05:44:04;;;;;;;5.80;2.78;;;15.70;90.00;;;;;;5051298;28;20029;-78
2021/08/25 05:46:31;;;;;;;6.28;3.28;;;15.70;90.10;;;;;;5050821;28;20041;-78
2021/08/25 05:48:58;;;;;;;7.63;2.90;;;15.70;90.10;;;;;;5051410;28;20104;-77
2021/08/25 05:51:24;;;;;;;4.97;2.80;;;15.70;90.10;;;;;;5050698;28;20017;-78
2021/08/25 05:53:51;;;;;;;6.78;3.22;;;15.70;90.10;;;;;;5051149;28;20043;-78
2021/08/25 05:56:17;;;;;;;5.78;3.08;;;15.70;90.10;;;;;;5049229;28;20444;-77
2021/08/25 05:58:43;;;;;;;5.50;2.70;;;15.70;90.20;;;;;;5050833;28;20449;-78
2021/08/25 06:01:12;;;;;;;5.53;2.83;;;15.80;90.30;;;;;;5053576;28;20025;-78
2021/08/25 06:03:38;;;;;;;6.10;3.40;;;15.80;90.30;;;;;;5058012;28;20024;-77
2021/08/25 06:06:03;;;;;;;6.07;2.90;;;15.80;90.30;;;;;;5054857;28;20473;-78
2021/08/25 06:08:29;;;;;;;5.72;2.90;;;15.80;90.30;;;;;;5053852;28;20086;-78
2021/08/25 06:10:55;;;;;;;6.75;2.97;;;15.80;90.30;;;;;;5054636;28;20037;-78
2021/08/25 06:13:20;;;;;;;6.20;2.95;;;15.90;90.30;;;;;;5053761;28;20023;-78
2021/08/25 06:15:46;;;;;;;6.70;2.72;;;15.90;90.30;;;;;;5054182;28;20082;-78
2021/08/25 06:18:12;;;;;;;5.22;2.78;;;15.90;90.40;;;;;;5054436;28;20029;-78
2021/08/25 06:20:37;;;;;;;6.70;3.05;;;15.90;90.40;;;;;;5054491;28;20089;-78
2021/08/25 06:23:03;;;;;;;4.93;2.88;;;16.00;90.40;;;;;;5054517;28;20470;-78
2021/08/25 06:25:29;;;;;;;6.00;2.60;;;16.00;90.30;;;;;;5053700;28;20080;-78
2021/08/25 06:27:54;;;;;;;6.18;2.83;;;16.00;90.30;;;;;;5054553;28;20032;-77
2021/08/25 06:30:20;;;;;;;7.50;3.03;;;16.10;90.30;;;;;;5053908;28;20110;-77
2021/08/25 06:32:46;;;;;;;8.13;3.08;;;16.10;90.40;;;;;;5052897;28;20445;-78
2021/08/25 06:35:12;;;;;;;5.95;3.10;;;16.10;90.30;;;;;;5054099;28;20052;-78
2021/08/25 06:37:38;;;;;;;6.55;2.58;;;16.20;90.40;;;;;;5052547;28;20021;-78
2021/08/25 06:40:04;;;;;;;5.35;2.97;;;16.10;90.40;;;;;;5054220;28;20119;-78
2021/08/25 06:42:30;;;;;;;5.53;2.42;;;16.20;90.40;;;;;;5052113;28;20488;-78
2021/08/25 06:44:55;;;;;;;5.13;2.90;;;16.20;90.40;;;;;;5054123;28;20033;-77
2021/08/25 06:47:21;;;;;;;6.15;2.40;;;16.20;90.40;;;;;;5053183;28;20025;-77
2021/08/25 06:49:47;;;;;;;4.65;1.90;;;16.30;90.40;;;;;;5053707;28;20381;-78
2021/08/25 06:52:12;;;;;;;7.32;2.88;;;16.30;90.40;;;;;;5053887;28;20053;-77
2021/08/25 06:54:38;;;;;;;4.53;2.38;;;16.30;90.30;;;;;;5053187;28;20025;-78
2021/08/25 06:57:04;;;;;;;4.75;2.70;;;16.40;90.30;;;;;;5053890;28;20028;-76
2021/08/25 06:59:30;;;;;;;4.13;2.22;;;16.40;90.30;;;;;;5053034;28;20440;-77
2021/08/25 07:01:56;;;;;;;6.05;2.88;;;16.50;90.30;;;;;;5052270;28;20120;-77
2021/08/25 07:04:21;;;;;;;6.57;2.60;;;16.50;90.30;;;;;;5053009;28;20025;-77
2021/08/25 07:06:47;;;;;;;5.88;2.47;;;16.50;90.20;;;;;;5052313;28;20036;-78
2021/08/25 07:09:13;;;;;;;5.75;2.50;;;16.60;90.10;;;;;;5052239;28;20107;-77
2021/08/25 07:11:39;;;;;;;5.25;2.45;;;16.60;90.10;;;;;;5051815;28;20024;-77
2021/08/25 07:14:05;;;;;;;5.53;2.28;;;16.60;90.10;;;;;;5053504;28;20513;-77
2021/08/25 07:16:34;;;;;;;5.55;2.38;;;16.70;90.00;;;;;;5052855;28;20163;-78
2021/08/25 07:19:04;;;;;;;3.58;1.98;;;16.70;90.00;;;;;;5052065;28;20477;-76
2021/08/25 07:21:31;;;;;;;5.93;2.97;;;16.80;90.00;;;;;;5052814;28;20063;-78
2021/08/25 07:23:56;;;;;;;7.13;2.53;;;16.80;90.00;;;;;;5052011;28;20025;-78
2021/08/25 07:26:22;;;;;;;5.78;2.50;;;16.80;90.10;;;;;;5052489;28;20024;-78
2021/08/25 07:28:48;;;;;;;5.22;2.50;;;16.90;90.20;;;;;;5053365;28;20425;-78
2021/08/25 07:31:15;;;;;;;5.13;2.22;;;16.90;90.20;;;;;;5051835;28;20381;-78
2021/08/25 07:33:41;;;;;;;4.47;2.15;;;16.90;90.10;;;;;;5053050;28;20086;-78
2021/08/25 07:36:08;;;;;;;4.63;2.13;;;16.90;90.20;;;;;;5053117;28;20052;-78
2021/08/25 07:38:34;;;;;;;4.38;1.90;;;17.00;90.10;;;;;;5052715;28;20100;-78
2021/08/25 07:41:00;;;;;;;4.25;2.00;;;17.00;90.10;;;;;;5053063;28;20103;-78
2021/08/25 07:43:26;;;;;;;5.15;2.05;;;17.10;90.10;;;;;;5052322;28;20021;-78
2021/08/25 07:45:52;;;;;;;4.93;2.20;;;17.10;90.10;;;;;;5053243;28;20071;-78
2021/08/25 07:48:18;;;;;;;5.45;2.45;;;17.20;90.10;;;;;;5052865;28;20031;-78
2021/08/25 07:50:44;;;;;;;5.65;2.38;;;17.20;90.10;;;;;;5052672;28;20096;-77
2021/08/25 07:53:09;;;;;;;4.63;1.77;;;17.20;90.10;;;;;;5051296;28;20048;-79
2021/08/25 07:55:35;;;;;;;4.97;2.40;;;17.30;90.10;;;;;;5050735;28;20091;-77
2021/08/25 07:58:01;;;;;;;4.07;1.85;;;17.30;90.10;;;;;;5052391;28;20429;-77
2021/08/25 08:00:26;;;;;;;5.22;1.92;;;17.30;90.10;;;;;;5052148;28;20373;-79
2021/08/25 08:02:52;;;;;;;5.28;2.10;;;17.30;90.00;;;;;;5052751;28;20090;-79
2021/08/25 08:05:18;;;;;;;5.05;1.92;;;17.40;90.00;;;;;;5052559;28;20025;-78
2021/08/25 08:07:44;;;;;;;4.55;1.85;;;17.40;89.90;;;;;;5052286;28;20021;-77
2021/08/25 08:10:11;;;;;;;5.00;2.38;;;17.50;89.90;;;;;;5051174;28;20032;-76
2021/08/25 08:12:36;;;;;;;5.15;1.83;;;17.50;89.70;;;;;;5051468;28;20032;-77
2021/08/25 08:15:04;;;;;;;3.35;2.08;;;17.60;90.10;;;;;;5051908;28;20037;-77
2021/08/25 08:17:31;;;;;;;6.00;2.13;;;17.60;89.60;;;;;;5051906;28;20017;-78
2021/08/25 08:19:57;;;;;;;7.72;2.15;;;17.70;89.50;;;;;;5051271;28;20078;-78
2021/08/25 08:22:22;;;;;;;5.70;2.08;;;17.70;89.30;;;;;;5051494;28;20017;-79
2021/08/25 08:24:48;;;;;;;4.68;2.03;;;17.80;89.20;;;;;;5053327;28;20108;-77
2021/08/25 08:27:14;;;;;;;3.22;1.60;;;17.80;89.00;;;;;;5053746;28;20021;-77
2021/08/25 08:29:39;;;;;;;4.20;1.77;;;17.90;88.60;;;;;;5051512;28;20403;-77
2021/08/25 08:32:09;;;;;;;4.10;1.40;;;17.90;88.00;;;;;;5052321;28;20108;-77
2021/08/25 08:34:36;;;;;;;5.10;1.80;;;18.00;87.90;;;;;;5049888;28;20033;-78
2021/08/25 08:37:02;;;;;;;3.42;1.60;;;18.00;87.40;;;;;;5052149;28;20021;-78
2021/08/25 08:39:28;;;;;;;2.42;1.45;;;18.10;86.80;;;;;;5051547;28;20021;-78
2021/08/25 08:41:53;;;;;;;4.30;1.63;;;18.20;86.60;;;;;;5051750;28;20484;-78
2021/08/25 08:44:20;;;;;;;2.28;1.35;;;18.20;86.10;;;;;;5051890;28;20393;-78
2021/08/25 08:46:50;;;;;;;3.97;2.00;;;18.30;86.00;;;;;;5051429;28;20053;-78
2021/08/25 08:49:17;;;;;;;4.60;1.77;;;18.30;85.50;;;;;;5051998;28;20477;-78
2021/08/25 08:51:43;;;;;;;4.47;1.50;;;18.40;85.30;;;;;;5066609;28;20078;-78
2021/08/25 08:54:09;;;;;;;3.17;1.42;;;18.40;84.90;;;;;;5051870;28;20036;-77
2021/08/25 08:56:35;;;;;;;1.98;1.10;;;18.50;84.60;;;;;;5049775;28;20446;-78
2021/08/25 08:59:02;;;;;;;3.50;1.55;;;18.50;84.50;;;;;;5052094;28;20056;-78
2021/08/25 09:01:31;;;;;;;3.53;1.50;;;18.50;84.30;;;;;;5051183;28;20021;-77
2021/08/25 09:03:57;;;;;;;2.97;1.38;;;18.50;83.90;;;;;;5051681;28;20028;-78
2021/08/25 09:06:43;;;;;;;3.47;1.55;;;18.60;83.60;;;;;;5050395;28;20489;-78
2021/08/25 09:09:10;;;;;;;3.78;1.60;;;18.70;83.30;;;;;;5051890;28;20025;-78
2021/08/25 09:11:51;;;;;;;2.63;1.30;;;18.80;83.10;;;;;;5049812;28;20025;-77
2021/08/25 09:14:18;;;;;;;4.20;1.70;;;18.80;82.50;;;;;;5050328;28;20021;-78
2021/08/25 09:16:44;;;;;;;3.72;1.60;;;18.80;82.40;;;;;;5051084;28;20461;-77
2021/08/25 09:19:13;;;;;;;3.13;1.20;;;18.90;81.80;;;;;;5050203;28;20443;-77
2021/08/25 09:22:00;;;;;;;3.13;1.38;;;18.90;81.90;;;;;;5050946;28;20160;-78
2021/08/25 09:24:39;;;;;;;3.38;1.20;;;18.90;81.10;;;;;;5049425;28;20492;-77
2021/08/25 09:27:07;;;;;;;2.03;1.27;;;19.00;80.80;;;;;;5050469;28;20091;-78
2021/08/25 09:29:36;;;;;;;3.63;1.30;;;19.00;80.50;;;;;;5049572;28;20013;-78
2021/08/25 09:32:01;;;;;;;4.55;1.40;;;19.10;80.10;;;;;;5051337;28;20021;-78
2021/08/25 09:34:32;;;;;;;4.45;1.80;;;19.20;79.70;;;;;;5052750;28;20025;-78
2021/08/25 09:37:06;;;;;;;4.93;1.42;;;19.20;79.30;;;;;;5055536;28;20021;-78
2021/08/25 09:39:32;;;;;;;3.42;1.45;;;19.20;79.00;;;;;;5054740;28;20513;-78
2021/08/25 09:41:59;;;;;;;3.60;1.48;;;19.30;79.00;;;;;;5055193;28;20123;-78
2021/08/25 09:44:25;;;;;;;3.45;1.35;;;19.30;78.90;;;;;;5055270;28;20039;-78
2021/08/25 09:46:51;;;;;;;3.38;1.73;;;19.30;78.50;;;;;;5054264;28;20021;-78
2021/08/25 09:49:17;;;;;;;5.10;1.80;;;19.40;78.20;;;;;;5053635;28;20053;-78
2021/08/25 09:51:43;;;;;;;4.25;1.60;;;19.40;77.90;;;;;;5054463;28;20060;-78
2021/08/25 09:54:15;;;;;;;2.45;1.40;;;19.50;77.70;;;;;;5053631;28;20025;-78
2021/08/25 09:56:43;;;;;;;3.15;1.70;;;19.50;77.30;;;;;;5054582;28;20025;-78
2021/08/25 09:59:13;;;;;;;3.83;1.30;;;19.50;76.80;;;;;;5054886;28;20028;-78
2021/08/25 10:01:41;;;;;;;3.90;1.30;;;19.60;76.50;;;;;;5054488;28;20107;-78
2021/08/25 10:04:09;;;;;;;3.63;1.52;;;19.60;76.20;;;;;;5054875;28;20032;-78
2021/08/25 10:06:37;;;;;;;3.38;1.52;;;19.60;76.10;;;;;;5054350;28;20029;-78
2021/08/25 10:09:07;;;;;;;2.80;1.35;;;19.70;75.80;;;;;;5053411;28;20017;-78
2021/08/25 10:11:35;;;;;;;3.20;1.63;;;19.70;75.50;;;;;;5054164;28;20029;-78
2021/08/25 10:14:07;;;;;;;3.45;1.63;;;19.80;75.30;;;;;;5054807;28;20025;-77
2021/08/25 10:16:52;;;;;;;3.47;1.42;;;19.90;74.90;;;;;;5052789;28;20013;-77
2021/08/25 10:19:38;;;;;;;3.10;1.60;;;19.90;74.30;;;;;;5054242;28;20032;-77
2021/08/25 10:22:24;;;;;;;3.25;1.40;;;20.00;74.90;;;;;;5054448;28;20021;-77
2021/08/25 10:25:04;;;;;;;3.95;1.55;;;20.00;73.70;;;;;;5053978;28;20064;-77
2021/08/25 10:27:32;;;;;;;5.68;1.58;;;20.10;73.20;;;;;;5052129;28;20020;-76
2021/08/25 10:30:01;;;;;;;5.47;1.70;;;20.10;73.20;;;;;;5069651;28;20116;-77
2021/08/25 10:32:27;;;;;;;4.13;1.67;;;20.20;73.00;;;;;;5054403;28;20064;-77
2021/08/25 10:35:11;;;;;;;2.70;1.10;;;20.20;72.80;;;;;;5053330;28;20055;-77
2021/08/25 10:37:37;;;;;;;4.60;1.70;;;20.30;72.80;;;;;;5053574;28;20025;-77
2021/08/25 10:40:04;;;;;;;2.92;1.50;;;20.30;72.60;;;;;;5054313;28;20025;-77
2021/08/25 10:42:52;;;;;;;4.65;1.25;;;20.40;72.70;;;;;;5053915;28;20021;-77
2021/08/25 10:45:38;;;;;;;4.55;1.77;;;20.40;72.40;;;;;;5051766;28;20135;-77
2021/08/25 10:48:09;;;;;;;2.63;1.40;;;20.40;72.00;;;;;;5054124;28;20087;-77
2021/08/25 10:50:53;;;;;;;3.92;1.50;;;20.50;71.60;;;;;;5053715;28;20108;-77
2021/08/25 10:53:28;;;;;;;3.03;1.55;;;20.40;71.70;;;;;;5056989;28;20025;-77
2021/08/25 10:56:23;;;;;;;3.92;1.48;;;20.50;72.10;;;;;;5053373;28;20029;-77
2021/08/25 10:58:51;;;;;;;2.10;1.13;;;20.50;71.70;;;;;;5044104;28;20045;-77
2021/08/25 11:01:29;;;;;;;4.20;1.60;;;20.60;72.00;;;;;;5053900;28;20025;-77
2021/08/25 11:03:58;;;;;;;2.42;1.35;;;20.60;71.30;;;;;;5053189;28;20036;-77
2021/08/25 11:06:32;;;;;;;3.63;1.73;;;20.70;71.30;;;;;;5052853;28;20088;-78
2021/08/25 11:09:15;;;;;;;4.70;1.95;;;20.80;71.10;;;;;;5053665;28;20063;-78
2021/08/25 11:11:53;;;;;;;3.80;1.75;;;20.90;70.80;;;;;;5053007;28;20025;-78
2021/08/25 11:14:22;;;;;;;4.47;1.77;;;21.00;70.70;;;;;;5053453;28;20108;-78
2021/08/25 11:16:49;;;;;;;4.07;1.77;;;21.00;70.50;;;;;;5052855;28;20029;-78
2021/08/25 11:19:26;;;;;;;4.03;1.80;;;21.10;70.20;;;;;;5053392;28;20027;-78
2021/08/25 11:21:53;;;;;;;2.85;1.40;;;21.20;70.10;;;;;;5051296;28;20025;-78
2021/08/25 11:24:19;;;;;;;5.28;2.05;;;21.30;69.90;;;;;;5052930;28;20377;-78
2021/08/25 11:26:45;;;;;;;2.97;1.70;;;21.40;69.90;;;;;;5051259;28;20092;-79
2021/08/25 11:29:21;;;;;;;4.22;2.20;;;21.40;69.90;;;;;;5053436;28;20527;-78
2021/08/25 11:31:48;;;;;;;3.50;1.73;;;21.50;70.00;;;;;;5052641;28;20013;-78
2021/08/25 11:34:15;;;;;;;4.10;2.00;;;21.50;69.90;;;;;;5052797;28;20531;-79
2021/08/25 11:36:58;;;;;;;4.88;2.30;;;21.50;69.90;;;;;;5051954;28;20053;-76
2021/08/25 11:39:24;;;;;;;4.07;1.90;;;21.50;69.90;;;;;;5052988;28;20033;-77
2021/08/25 11:41:51;;;;;;;3.53;1.83;;;21.50;70.20;;;;;;5052216;28;20084;-77
2021/08/25 11:44:42;;;;;;;4.10;2.10;;;21.50;70.30;;;;;;5053042;28;20024;-78
2021/08/25 11:47:13;;;;;;;5.10;2.17;;;21.60;69.90;;;;;;5053082;28;20025;-78
2021/08/25 11:49:39;;;;;;;5.20;2.50;;;21.80;70.40;;;;;;5052264;28;20017;-76
2021/08/25 11:52:07;;;;;;;4.00;2.00;;;21.80;69.60;;;;;;5052660;28;20408;-77
2021/08/25 11:54:33;;;;;;;4.55;2.47;;;21.80;69.70;;;;;;5052886;28;20029;-78
2021/08/25 11:56:59;;;;;;;2.78;1.55;;;21.80;70.00;;;;;;5051939;28;20101;-76
2021/08/25 11:59:25;;;;;;;4.63;2.10;;;21.80;70.00;;;;;;5052727;28;20104;-77
2021/08/25 12:02:06;;;;;;;5.38;2.20;;;21.80;69.70;;;;;;5052005;28;20033;-77
2021/08/25 12:04:32;;;;;;;4.78;1.92;;;21.80;69.30;;;;;;5052750;28;20028;-77
2021/08/25 12:06:59;;;;;;;3.92;1.70;;;22.00;69.50;;;;;;5050559;28;20025;-77
2021/08/25 12:09:32;;;;;;;4.97;2.20;;;22.10;69.10;;;;;;5052495;28;20017;-77
2021/08/25 12:11:58;;;;;;;3.30;1.63;;;22.10;68.70;;;;;;5050487;28;20017;-78
2021/08/25 12:14:24;;;;;;;3.03;1.60;;;22.20;68.90;;;;;;5052306;28;20077;-77
2021/08/25 12:17:06;;;;;;;4.07;1.73;;;22.20;68.10;;;;;;5051556;28;20021;-77
2021/08/25 12:19:34;;;;;;;3.33;1.65;;;22.30;67.40;;;;;;5052300;28;20068;-78
2021/08/25 12:22:25;;;;;;;4.25;2.08;;;22.30;67.30;;;;;;5050379;28;20119;-77
2021/08/25 12:24:51;;;;;;;3.20;1.85;;;22.40;67.00;;;;;;5051917;28;20036;-78
2021/08/25 12:27:17;;;;;;;4.45;1.90;;;22.40;66.60;;;;;;5051812;28;20021;-77
2021/08/25 12:29:44;;;;;;;3.95;1.95;;;22.50;66.20;;;;;;5051553;28;20029;-77
2021/08/25 12:32:11;;;;;;;4.88;1.90;;;22.50;66.00;;;;;;5050867;28;20029;-78
2021/08/25 12:35:00;;;;;;;4.72;2.00;;;22.60;66.00;;;;;;5051967;28;20029;-77
2021/08/25 12:37:49;;;;;;;2.97;1.40;;;22.60;65.70;;;;;;5050913;28;20424;-77
2021/08/25 12:40:16;;;;;;;3.13;1.30;;;22.70;65.80;;;;;;5052002;28;20013;-78
2021/08/25 12:42:43;;;;;;;2.97;1.60;;;22.80;65.70;;;;;;5049918;28;20021;-75
2021/08/25 12:45:09;;;;;;;2.75;1.50;;;22.90;65.60;;;;;;5050659;28;20603;-77
2021/08/25 12:47:35;;;;;;;3.58;1.50;;;22.90;65.50;;;;;;5050634;28;20377;-78
2021/08/25 12:50:00;;;;;;;3.38;1.60;;;23.00;65.50;;;;;;5051230;28;20032;-78
2021/08/25 12:52:27;;;;;;;4.85;1.73;;;23.00;65.30;;;;;;5051900;28;20135;-77